createdAt,value
2023-02-03T00:00:39.853Z,2.57
2023-02-03T00:03:07.896Z,6.13
2023-02-03T00:05:36.702Z,4.93
2023-02-03T00:08:05.976Z,4.27
2023-02-03T00:10:35.292Z,3.07
2023-02-03T00:13:04.519Z,2.07
2023-02-03T00:15:32.324Z,3.80
2023-02-03T00:18:00.062Z,4.13
2023-02-03T00:20:28.187Z,4.03
2023-02-03T00:22:56.053Z,6.03
2023-02-03T00:25:23.901Z,6.47
2023-02-03T00:27:51.662Z,4.23
2023-02-03T00:30:20.985Z,5.20
2023-02-03T00:32:48.734Z,2.57
2023-02-03T00:35:16.483Z,6.23
2023-02-03T00:37:44.177Z,2.70
2023-02-03T00:40:13.908Z,6.60
2023-02-03T00:42:41.648Z,3.97
2023-02-03T00:45:10.265Z,5.50
2023-02-03T00:47:39.725Z,6.40
2023-02-03T00:50:08.415Z,4.50
2023-02-03T00:52:36.242Z,5.60
2023-02-03T00:55:04.221Z,3.20
2023-02-03T00:57:31.963Z,2.87
2023-02-03T00:59:59.696Z,3.90
2023-02-03T01:02:27.555Z,2.63
2023-02-03T01:04:56.657Z,3.90
2023-02-03T01:07:24.397Z,3.53
2023-02-03T01:09:52.180Z,3.03
2023-02-03T01:12:20.315Z,2.67
2023-02-03T01:14:48.084Z,1.93
2023-02-03T01:17:15.826Z,2.53
2023-02-03T01:19:43.573Z,3.37
2023-02-03T01:22:12.688Z,3.13
2023-02-03T01:24:40.400Z,3.33
2023-02-03T01:27:08.189Z,3.87
2023-02-03T01:29:36.012Z,2.80
2023-02-03T01:32:04.419Z,2.50
2023-02-03T01:34:32.268Z,3.90
2023-02-03T01:37:00.017Z,2.07
2023-02-03T01:39:29.105Z,2.17
2023-02-03T01:41:57.624Z,2.57
2023-02-03T01:44:51.368Z,1.93
2023-02-03T01:47:32.605Z,3.73
2023-02-03T01:50:15.909Z,3.50
2023-02-03T01:52:46.558Z,2.80
2023-02-03T01:55:20.443Z,2.00
2023-02-03T01:57:52.725Z,3.50
2023-02-03T02:00:20.998Z,2.50
2023-02-03T02:02:51.153Z,3.60
2023-02-03T02:05:23.734Z,2.47
2023-02-03T02:07:52.585Z,2.20
2023-02-03T02:10:21.907Z,2.50
2023-02-03T02:12:49.816Z,3.47
2023-02-03T02:15:18.168Z,1.97
2023-02-03T02:17:59.452Z,2.83
2023-02-03T02:20:53.736Z,1.87
2023-02-03T02:24:13.265Z,1.83
2023-02-03T02:26:52.141Z,5.50
2023-02-03T02:30:02.883Z,3.67
2023-02-03T02:32:51.524Z,1.23
2023-02-03T02:35:29.071Z,1.70
2023-02-03T02:38:02.939Z,1.67
2023-02-03T02:40:37.145Z,1.20
2023-02-03T02:43:10.531Z,1.53
2023-02-03T02:45:46.822Z,1.23
2023-02-03T02:48:20.875Z,1.43
2023-02-03T02:50:52.991Z,1.17
2023-02-03T02:53:25.184Z,1.73
2023-02-03T02:55:54.587Z,1.67
2023-02-03T02:58:23.494Z,1.80
2023-02-03T03:00:51.880Z,2.10
2023-02-03T03:03:23.319Z,1.87
2023-02-03T03:05:55.140Z,1.83
2023-02-03T03:08:27.893Z,2.20
2023-02-03T03:10:58.119Z,3.93
2023-02-03T03:13:31.021Z,1.70
2023-02-03T03:16:00.944Z,2.63
2023-02-03T03:18:34.348Z,2.40
2023-02-03T03:21:06.416Z,2.70
2023-02-03T03:23:39.546Z,4.63
2023-02-03T03:26:13.682Z,5.00
2023-02-03T03:28:48.092Z,3.20
2023-02-03T03:31:17.193Z,2.60
2023-02-03T03:33:47.583Z,2.67
2023-02-03T03:36:23.466Z,3.50
2023-02-03T03:38:57.056Z,3.00
2023-02-03T03:41:33.505Z,3.67
2023-02-03T03:44:05.283Z,4.50
2023-02-03T03:46:39.189Z,3.37
2023-02-03T03:49:11.822Z,5.30
2023-02-03T03:51:45.418Z,6.17
2023-02-03T03:54:16.824Z,5.77
2023-02-03T03:56:50.529Z,4.73
2023-02-03T03:59:22.586Z,6.57
2023-02-03T04:01:52.039Z,8.50
2023-02-03T04:04:22.810Z,8.20
2023-02-03T04:06:50.513Z,5.97
2023-02-03T04:09:18.217Z,6.47
2023-02-03T04:12:06.041Z,8.70
2023-02-03T04:14:35.743Z,6.20
2023-02-03T04:17:03.794Z,12.47
2023-02-03T04:19:33.163Z,12.20
2023-02-03T04:22:00.925Z,8.60
2023-02-03T04:24:28.673Z,8.23
2023-02-03T04:26:56.526Z,8.33
2023-02-03T04:29:24.255Z,10.73
2023-02-03T04:31:52.010Z,12.60
2023-02-03T04:34:19.719Z,8.60
2023-02-03T04:36:48.839Z,15.03
2023-02-03T04:39:16.563Z,4.27
2023-02-03T04:41:44.313Z,6.33
2023-02-03T04:44:12.037Z,3.40
2023-02-03T04:46:39.746Z,4.87
2023-02-03T04:49:07.665Z,5.07
2023-02-03T04:51:35.366Z,7.23
2023-02-03T04:54:04.687Z,5.83
2023-02-03T04:56:32.388Z,9.97
2023-02-03T04:59:00.146Z,3.93
2023-02-03T05:01:27.989Z,10.53
2023-02-03T05:03:55.752Z,4.23
2023-02-03T05:06:25.676Z,2.30
2023-02-03T05:08:53.576Z,5.20
2023-02-03T05:11:23.220Z,4.17
2023-02-03T05:13:50.989Z,4.33
2023-02-03T05:16:18.759Z,8.47
2023-02-03T05:18:46.652Z,6.53
2023-02-03T05:21:14.527Z,7.13
2023-02-03T05:23:42.258Z,6.03
2023-02-03T05:26:10.065Z,3.23
2023-02-03T05:28:39.527Z,5.47
2023-02-03T05:31:07.309Z,2.90
2023-02-03T05:33:35.140Z,5.07
2023-02-03T05:36:02.946Z,3.00
2023-02-03T05:38:30.709Z,5.30
2023-02-03T05:41:15.964Z,7.60
2023-02-03T05:43:45.058Z,3.67
2023-02-03T05:46:12.904Z,5.33
2023-02-03T05:48:40.691Z,4.47
2023-02-03T05:51:08.415Z,2.97
2023-02-03T05:53:36.150Z,4.20
2023-02-03T05:56:03.870Z,4.80
2023-02-03T05:58:31.594Z,9.17
2023-02-03T06:01:00.664Z,2.33
2023-02-03T06:03:28.461Z,2.37
2023-02-03T06:05:56.208Z,4.70
2023-02-03T06:08:28.450Z,11.27
2023-02-03T06:10:59.782Z,5.43
2023-02-03T06:13:28.378Z,6.30
2023-02-03T06:15:56.215Z,4.73
2023-02-03T06:18:25.473Z,1.00
2023-02-03T06:20:53.217Z,2.23
2023-02-03T06:23:20.980Z,2.97
2023-02-03T06:25:49.407Z,1.00
2023-02-03T06:28:17.357Z,4.43
2023-02-03T06:30:45.551Z,5.87
2023-02-03T06:33:13.340Z,1.23
2023-02-03T06:35:42.443Z,2.23
2023-02-03T06:38:10.187Z,1.40
2023-02-03T06:40:38.032Z,1.87
2023-02-03T06:43:05.989Z,1.97
2023-02-03T06:45:34.548Z,1.90
2023-02-03T06:48:02.298Z,3.07
2023-02-03T06:50:30.316Z,2.53
2023-02-03T06:52:59.509Z,1.83
2023-02-03T06:55:27.299Z,2.13
2023-02-03T06:57:55.067Z,1.97
2023-02-03T07:00:24.354Z,1.50
2023-02-03T07:02:55.071Z,1.33
2023-02-03T07:05:23.332Z,1.97
2023-02-03T07:07:51.503Z,2.57
2023-02-03T07:10:21.095Z,1.63
2023-02-03T07:12:50.689Z,1.43
2023-02-03T07:15:18.891Z,2.00
2023-02-03T07:17:54.416Z,1.90
2023-02-03T07:20:23.332Z,3.23
2023-02-03T07:22:55.723Z,1.23
2023-02-03T07:25:26.405Z,2.40
2023-02-03T07:27:54.618Z,1.30
2023-02-03T07:30:22.753Z,1.13
2023-02-03T07:32:51.522Z,2.67
2023-02-03T07:35:19.842Z,3.23
2023-02-03T07:37:47.676Z,2.00
2023-02-03T07:40:16.086Z,1.50
2023-02-03T07:42:46.149Z,0.87
2023-02-03T07:45:15.454Z,1.27
2023-02-03T07:47:44.390Z,3.60
2023-02-03T07:50:13.056Z,1.53
2023-02-03T07:52:40.987Z,7.97
2023-02-03T07:55:09.385Z,1.53
2023-02-03T07:57:37.327Z,3.20
2023-02-03T08:00:07.310Z,1.73
2023-02-03T08:02:35.005Z,5.07
2023-02-03T08:05:02.756Z,2.10
2023-02-03T08:07:30.498Z,0.57
2023-02-03T08:09:58.203Z,1.40
2023-02-03T08:12:25.971Z,3.83
2023-02-03T08:14:53.807Z,2.50
2023-02-03T08:17:23.477Z,3.63
2023-02-03T08:19:51.223Z,3.30
2023-02-03T08:22:19.350Z,4.47
2023-02-03T08:24:48.208Z,5.23
2023-02-03T08:27:17.409Z,2.03
2023-02-03T08:29:46.080Z,5.07
2023-02-03T08:32:15.673Z,9.13
2023-02-03T08:34:45.187Z,7.30
2023-02-03T08:37:13.818Z,5.23
2023-02-03T08:39:41.743Z,8.07
2023-02-03T08:42:09.799Z,4.20
2023-02-03T08:44:39.035Z,7.67
2023-02-03T08:47:07.248Z,8.90
2023-02-03T08:49:35.761Z,11.13
2023-02-03T08:52:05.101Z,6.67
2023-02-03T08:54:32.926Z,14.00
2023-02-03T08:57:00.987Z,7.07
2023-02-03T08:59:29.208Z,9.63
2023-02-03T09:01:59.786Z,12.93
2023-02-03T09:04:27.524Z,9.90
2023-02-03T09:06:55.849Z,13.47
2023-02-03T09:09:26.537Z,11.73
2023-02-03T09:11:56.997Z,15.67
2023-02-03T09:14:26.643Z,14.90
2023-02-03T09:16:54.369Z,13.63
2023-02-03T09:19:22.129Z,19.93
2023-02-03T09:21:50.718Z,18.73
2023-02-03T09:24:19.450Z,26.77
2023-02-03T09:26:48.553Z,16.67
2023-02-03T09:29:16.291Z,15.43
2023-02-03T09:31:44.161Z,19.33
2023-02-03T09:34:11.925Z,19.20
2023-02-03T09:36:41.284Z,12.63
2023-02-03T09:39:09.690Z,12.20
2023-02-03T09:41:52.718Z,16.53
2023-02-03T09:44:27.478Z,22.73
2023-02-03T09:46:57.945Z,17.60
2023-02-03T09:49:28.585Z,15.17
2023-02-03T09:52:02.508Z,16.77
2023-02-03T09:54:39.791Z,22.77
2023-02-03T09:57:19.035Z,12.50
2023-02-03T09:59:46.902Z,22.17
2023-02-03T10:02:40.001Z,22.07
2023-02-03T10:05:19.150Z,18.90
2023-02-03T10:07:57.870Z,16.97
2023-02-03T10:10:37.304Z,20.47
2023-02-03T10:13:18.223Z,18.67
2023-02-03T10:16:00.117Z,22.00
2023-02-03T10:18:33.160Z,15.80
2023-02-03T10:21:04.749Z,22.37
2023-02-03T10:23:36.267Z,26.77
2023-02-03T10:26:08.218Z,14.70
2023-02-03T10:28:41.548Z,16.27
2023-02-03T10:31:18.785Z,19.20
2023-02-03T10:33:48.290Z,14.07
2023-02-03T10:36:21.045Z,12.30
2023-02-03T10:38:57.514Z,15.60
2023-02-03T10:41:25.943Z,19.67
2023-02-03T10:43:57.380Z,25.60
2023-02-03T10:46:30.049Z,20.30
2023-02-03T10:48:58.203Z,17.10
2023-02-03T10:51:28.781Z,16.73
2023-02-03T10:53:56.821Z,16.80
2023-02-03T10:56:27.570Z,14.07
2023-02-03T10:58:58.545Z,23.50
2023-02-03T11:01:29.212Z,12.10
2023-02-03T11:04:03.209Z,13.13
2023-02-03T11:06:31.942Z,11.87
2023-02-03T11:09:00.122Z,13.10
2023-02-03T11:11:31.556Z,15.17
2023-02-03T11:14:17.957Z,8.27
2023-02-03T11:16:47.329Z,19.87
2023-02-03T11:19:19.311Z,11.60
2023-02-03T11:21:49.987Z,12.63
2023-02-03T11:24:21.773Z,13.60
2023-02-03T11:26:55.083Z,17.33
2023-02-03T11:29:28.337Z,20.17
2023-02-03T11:31:58.620Z,14.93
2023-02-03T11:34:29.864Z,8.27
2023-02-03T11:36:57.909Z,16.57
2023-02-03T11:39:29.017Z,11.63
2023-02-03T11:41:57.617Z,10.97
2023-02-03T11:44:31.108Z,15.00
2023-02-03T11:47:03.261Z,17.37
2023-02-03T11:50:06.290Z,17.33
2023-02-03T11:53:00.162Z,15.13
2023-02-03T11:55:41.926Z,18.87
2023-02-03T11:58:35.677Z,17.13
2023-02-03T12:01:12.471Z,17.43
2023-02-03T12:04:15.004Z,15.40
2023-02-03T12:07:12.431Z,25.73
2023-02-03T12:09:51.204Z,15.73
2023-02-03T12:12:46.009Z,18.07
2023-02-03T12:15:33.958Z,20.53
2023-02-03T12:18:13.602Z,18.87
2023-02-03T12:20:51.600Z,23.37
2023-02-03T12:23:31.876Z,27.27
2023-02-03T12:26:15.961Z,14.07
2023-02-03T12:28:49.919Z,19.43
2023-02-03T12:31:29.483Z,16.43
2023-02-03T12:34:05.711Z,29.10
2023-02-03T12:36:39.620Z,27.30
2023-02-03T12:39:13.633Z,21.00
2023-02-03T12:41:47.336Z,19.37
2023-02-03T12:44:21.787Z,17.43
2023-02-03T12:46:56.447Z,14.43
2023-02-03T12:49:36.296Z,19.33
2023-02-03T12:52:10.667Z,18.27
2023-02-03T12:54:46.493Z,21.73
2023-02-03T12:57:21.651Z,18.90
2023-02-03T12:59:59.739Z,20.80
2023-02-03T13:02:31.060Z,13.90
2023-02-03T13:05:06.768Z,22.83
2023-02-03T13:07:40.213Z,11.13
2023-02-03T13:10:19.544Z,18.93
2023-02-03T13:12:50.989Z,15.87
2023-02-03T13:15:24.738Z,20.30
2023-02-03T13:17:58.071Z,17.73
2023-02-03T13:20:31.342Z,18.40
2023-02-03T13:22:59.495Z,22.37
2023-02-03T13:25:33.495Z,28.33
2023-02-03T13:28:12.929Z,23.67
2023-02-03T13:30:56.798Z,22.43
2023-02-03T13:33:52.129Z,18.20
2023-02-03T13:36:54.313Z,30.60
2023-02-03T13:39:35.097Z,23.13
2023-02-03T13:42:19.339Z,11.47
2023-02-03T13:44:51.579Z,22.27
2023-02-03T13:47:24.058Z,20.67
2023-02-03T13:49:57.172Z,23.37
2023-02-03T13:52:30.021Z,21.93
2023-02-03T13:54:58.883Z,11.23
2023-02-03T13:57:35.476Z,21.50
2023-02-03T14:00:05.286Z,19.20
2023-02-03T14:02:54.149Z,16.17
2023-02-03T14:05:43.816Z,23.77
2023-02-03T14:08:53.072Z,17.37
2023-02-03T14:11:42.329Z,19.90
2023-02-03T14:14:45.416Z,19.83
2023-02-03T14:17:50.196Z,20.10
2023-02-03T14:20:43.151Z,19.83
2023-02-03T14:23:17.662Z,23.03
2023-02-03T14:25:49.469Z,15.97
2023-02-03T14:28:21.319Z,26.30
2023-02-03T14:31:12.655Z,24.27
2023-02-03T14:33:57.404Z,31.07
2023-02-03T14:36:39.176Z,13.33
2023-02-03T14:39:37.198Z,28.63
2023-02-03T14:42:12.497Z,20.20
2023-02-03T14:44:54.299Z,14.13
2023-02-03T14:47:34.957Z,18.13
2023-02-03T14:50:14.407Z,20.13
2023-02-03T14:53:01.894Z,19.07
2023-02-03T14:55:45.319Z,24.90
2023-02-03T14:58:27.439Z,25.40
2023-02-03T15:00:56.619Z,10.43
2023-02-03T15:03:27.740Z,19.40
2023-02-03T15:05:57.426Z,20.67
2023-02-03T15:08:44.284Z,20.33
2023-02-03T15:11:31.594Z,17.97
2023-02-03T15:14:19.342Z,19.13
2023-02-03T15:16:51.948Z,18.77
2023-02-03T15:19:22.210Z,21.47
2023-02-03T15:21:50.325Z,17.87
2023-02-03T15:24:23.061Z,27.90
2023-02-03T15:26:52.958Z,12.67
2023-02-03T15:29:28.654Z,24.83
2023-02-03T15:32:10.440Z,20.20
2023-02-03T15:34:43.503Z,26.17
2023-02-03T15:37:18.902Z,17.63
2023-02-03T15:39:57.020Z,14.17
2023-02-03T15:42:30.694Z,13.13
2023-02-03T15:45:02.223Z,18.47
2023-02-03T15:47:35.688Z,19.07
2023-02-03T15:50:16.733Z,31.67
2023-02-03T15:52:46.470Z,23.10
2023-02-03T15:55:22.405Z,12.83
2023-02-03T15:57:51.715Z,17.70
2023-02-03T16:00:32.917Z,25.50
2023-02-03T16:03:05.285Z,15.70
2023-02-03T16:05:34.931Z,20.83
2023-02-03T16:08:36.947Z,20.07
2023-02-03T16:11:23.405Z,17.27
2023-02-03T16:13:51.888Z,22.80
2023-02-03T16:16:23.416Z,15.83
2023-02-03T16:18:56.084Z,20.13
2023-02-03T16:21:28.931Z,15.47
2023-02-03T16:23:57.212Z,20.93
2023-02-03T16:26:26.687Z,14.20
2023-02-03T16:29:21.280Z,11.63
2023-02-03T16:32:07.729Z,15.60
2023-02-03T16:34:54.237Z,22.07
2023-02-03T16:37:43.060Z,16.00
2023-02-03T16:40:29.884Z,15.77
2023-02-03T16:43:15.397Z,16.17
2023-02-03T16:46:01.083Z,24.73
2023-02-03T16:48:46.379Z,13.30
2023-02-03T16:51:17.321Z,13.17
2023-02-03T16:53:48.209Z,17.30
2023-02-03T16:56:18.277Z,13.53
2023-02-03T16:58:46.245Z,10.80
2023-02-03T17:01:14.046Z,13.33
2023-02-03T17:03:41.898Z,15.37
2023-02-03T17:06:11.596Z,9.93
2023-02-03T17:08:42.267Z,12.60
2023-02-03T17:11:15.309Z,10.00
2023-02-03T17:13:43.571Z,9.60
2023-02-03T17:16:13.759Z,10.10
2023-02-03T17:18:41.583Z,14.67
2023-02-03T17:21:12.322Z,5.93
2023-02-03T17:23:41.459Z,6.27
2023-02-03T17:26:09.499Z,16.20
2023-02-03T17:28:39.473Z,13.00
2023-02-03T17:31:08.648Z,10.83
2023-02-03T17:33:36.428Z,16.53
2023-02-03T17:36:07.166Z,18.23
2023-02-03T17:55:15.597Z,3.27
2023-02-03T17:57:44.672Z,2.40
2023-02-03T18:00:13.380Z,2.53
2023-02-03T18:02:42.567Z,5.03
2023-02-03T18:05:11.040Z,4.77
2023-02-03T18:07:38.902Z,6.50
2023-02-03T18:10:09.561Z,6.30
2023-02-03T18:12:37.346Z,7.30
2023-02-03T18:15:06.865Z,4.40
2023-02-03T18:17:34.644Z,6.50
2023-02-03T18:20:03.996Z,4.83
2023-02-03T18:22:31.756Z,1.60
2023-02-03T18:25:00.017Z,2.07
2023-02-03T18:27:27.830Z,1.40
2023-02-03T18:29:55.567Z,2.00
2023-02-03T18:32:24.688Z,1.77
2023-02-03T18:34:54.292Z,2.87
2023-02-03T18:37:22.066Z,0.93
2023-02-03T18:39:49.935Z,0.70
2023-02-03T18:42:17.662Z,4.00
2023-02-03T18:44:45.462Z,2.70
2023-02-03T18:47:13.279Z,0.53
2023-02-03T18:49:42.418Z,0.90
2023-02-03T18:52:10.219Z,0.40
2023-02-03T18:54:37.981Z,0.80
2023-02-03T18:57:05.932Z,0.77
2023-02-03T18:59:33.686Z,1.80
2023-02-03T19:02:01.482Z,0.40
2023-02-03T19:04:29.266Z,2.47
2023-02-03T19:06:58.640Z,0.73
2023-02-03T19:09:26.366Z,2.00
2023-02-03T19:12:03.828Z,2.33
2023-02-03T19:14:34.825Z,1.37
2023-02-03T19:17:03.514Z,1.60
2023-02-03T19:19:31.667Z,3.00
2023-02-03T19:22:00.825Z,1.30
2023-02-03T19:24:31.022Z,2.43
2023-02-03T19:26:59.234Z,1.33
2023-02-03T19:29:27.028Z,1.03
2023-02-03T19:31:54.848Z,1.03
2023-02-03T19:34:22.615Z,29.53
2023-02-03T19:36:53.031Z,2.17
2023-02-03T19:39:22.153Z,4.13
2023-02-03T19:41:49.930Z,0.77
2023-02-03T19:44:17.680Z,2.37
2023-02-03T19:46:45.478Z,0.97
2023-02-03T19:49:15.129Z,2.53
2023-02-03T19:51:43.909Z,3.80
2023-02-03T19:54:13.377Z,0.90
2023-02-03T19:56:42.924Z,0.87
2023-02-03T19:59:11.551Z,1.37
2023-02-03T20:01:39.543Z,3.23
2023-02-03T20:04:08.531Z,3.80
2023-02-03T20:06:36.866Z,1.63
2023-02-03T20:09:06.240Z,2.53
2023-02-03T20:11:34.232Z,1.77
2023-02-03T20:14:03.323Z,1.07
2023-02-03T20:16:31.197Z,5.63
2023-02-03T20:19:01.046Z,3.10
2023-02-03T20:21:28.954Z,1.20
2023-02-03T20:23:56.823Z,1.30
2023-02-03T20:26:24.598Z,1.60
2023-02-03T20:28:52.746Z,3.53
2023-02-03T20:31:21.953Z,1.50
2023-02-03T20:33:50.816Z,4.17
2023-02-03T20:36:18.612Z,2.70
2023-02-03T20:38:46.444Z,2.30
2023-02-03T20:41:14.208Z,1.40
2023-02-03T20:43:42.555Z,2.40
2023-02-03T20:46:13.105Z,4.27
2023-02-03T20:48:42.644Z,3.40
2023-02-03T20:51:12.297Z,1.73
2023-02-03T20:53:41.011Z,2.40
2023-02-03T20:56:14.431Z,2.13
2023-02-03T20:58:43.911Z,2.47
2023-02-03T21:01:15.163Z,5.50
2023-02-03T21:04:02.490Z,1.60
2023-02-03T21:06:31.826Z,5.20
2023-02-03T21:09:06.746Z,4.40
2023-02-03T21:11:34.487Z,3.40
2023-02-03T21:14:05.016Z,2.17
2023-02-03T21:16:39.219Z,2.37
2023-02-03T21:19:17.687Z,2.77
2023-02-03T21:21:46.869Z,1.70
2023-02-03T21:24:25.812Z,1.33
2023-02-03T21:26:53.813Z,2.50
2023-02-03T21:29:25.494Z,6.83
2023-02-03T21:31:54.854Z,5.47
2023-02-03T21:34:29.659Z,2.37
2023-02-03T21:36:57.852Z,2.40
2023-02-03T21:39:28.259Z,2.63
2023-02-03T21:41:57.024Z,2.40
2023-02-03T21:44:31.073Z,4.30
2023-02-03T21:46:58.878Z,2.07
2023-02-03T21:49:29.840Z,1.73
2023-02-03T21:51:57.723Z,4.93
2023-02-03T21:54:30.229Z,4.70
2023-02-03T21:56:59.518Z,4.63
2023-02-03T21:59:29.926Z,2.57
2023-02-03T22:01:58.729Z,1.37
2023-02-03T22:04:29.125Z,3.57
2023-02-03T22:06:57.206Z,2.23
2023-02-03T22:09:26.383Z,3.70
2023-02-03T22:11:54.490Z,4.53
2023-02-03T22:14:22.310Z,2.37
2023-02-03T22:16:50.345Z,2.33
2023-02-03T22:19:18.416Z,2.67
2023-02-03T22:21:49.757Z,2.70
2023-02-03T22:24:17.483Z,1.50
2023-02-03T22:26:45.207Z,3.13
2023-02-03T22:29:12.977Z,1.80
2023-02-03T22:31:42.721Z,4.50
2023-02-03T22:34:10.618Z,0.80
2023-02-03T22:36:38.332Z,2.20
2023-02-03T22:39:07.418Z,1.30
2023-02-03T22:41:35.139Z,3.90
2023-02-03T22:44:03.108Z,0.90
2023-02-03T22:46:30.805Z,1.80
2023-02-03T22:49:01.507Z,2.20
2023-02-03T22:51:29.414Z,3.20
2023-02-03T22:53:57.106Z,3.60
2023-02-03T22:56:26.259Z,1.43
2023-02-03T22:58:54.029Z,0.90
2023-02-03T23:01:21.761Z,1.07
2023-02-03T23:03:49.472Z,0.90
2023-02-03T23:06:17.201Z,1.90
2023-02-03T23:08:45.331Z,1.13
2023-02-03T23:11:13.096Z,1.37
2023-02-03T23:13:42.194Z,0.97
2023-02-03T23:16:09.950Z,1.00
2023-02-03T23:18:37.750Z,0.60
2023-02-03T23:21:05.633Z,0.83
2023-02-03T23:23:33.399Z,0.80
2023-02-03T23:26:01.200Z,0.93
2023-02-03T23:28:28.930Z,0.80
2023-02-03T23:30:58.143Z,7.40
2023-02-03T23:33:25.927Z,0.73
2023-02-03T23:35:52.910Z,1.73
2023-02-03T23:38:20.618Z,0.60
2023-02-03T23:40:48.884Z,0.73
2023-02-03T23:43:16.874Z,0.80
2023-02-03T23:45:44.637Z,1.07
2023-02-03T23:48:13.798Z,0.67
2023-02-03T23:50:41.519Z,1.40
2023-02-03T23:53:09.464Z,1.13
2023-02-03T23:55:37.365Z,1.13
2023-02-03T23:58:06.001Z,0.90
